createdAt,value
2022-09-02T00:01:52.417Z,4.50
2022-09-02T00:04:29.426Z,4.10
2022-09-02T00:10:26.362Z,3.50
2022-09-02T00:12:59.070Z,5.00
2022-09-02T00:15:58.884Z,4.20
2022-09-02T00:19:21.734Z,4.30
2022-09-02T00:22:25.804Z,4.10
2022-09-02T00:25:05.195Z,4.70
2022-09-02T00:28:07.361Z,3.80
2022-09-02T00:31:30.598Z,3.60
2022-09-02T00:34:04.883Z,4.40
2022-09-02T00:37:07.432Z,4.00
2022-09-02T00:40:09.243Z,6.20
2022-09-02T00:42:46.479Z,4.50
2022-09-02T00:45:27.065Z,3.70
2022-09-02T00:48:00.222Z,4.40
2022-09-02T00:50:38.442Z,3.70
2022-09-02T00:53:40.809Z,4.20
2022-09-02T00:56:45.457Z,4.30
2022-09-02T01:10:12.365Z,4.20
2022-09-02T01:12:49.600Z,4.30
2022-09-02T01:15:25.818Z,3.50
2022-09-02T01:18:01.794Z,3.30
2022-09-02T01:21:07.753Z,4.00
2022-09-02T01:24:10.796Z,4.30
2022-09-02T01:26:45.140Z,3.80
2022-09-02T01:32:30.206Z,3.70
2022-09-02T01:41:38.390Z,4.20
2022-09-02T01:44:14.147Z,4.70
2022-09-02T01:46:52.418Z,5.60
2022-09-02T01:49:30.432Z,4.20
2022-09-02T01:52:59.051Z,3.00
2022-09-02T01:55:32.343Z,3.50
2022-09-02T01:58:07.736Z,5.20
2022-09-02T02:04:13.278Z,4.00
2022-09-02T02:07:19.284Z,3.90
2022-09-02T02:10:18.814Z,4.30
2022-09-02T02:13:20.264Z,3.50
2022-09-02T02:19:26.680Z,4.50
2022-09-02T02:22:25.072Z,6.70
2022-09-02T02:28:29.193Z,5.40
2022-09-02T02:31:31.820Z,6.20
2022-09-02T02:34:37.216Z,4.70
2022-09-02T02:40:50.254Z,5.20
2022-09-02T02:43:51.122Z,4.10
2022-09-02T02:50:15.338Z,7.10
2022-09-02T02:52:58.615Z,5.00
2022-09-02T02:55:40.890Z,4.90
2022-09-02T02:58:43.055Z,6.60
2022-09-02T03:01:46.342Z,5.80
2022-09-02T03:04:26.082Z,6.50
2022-09-02T03:07:10.546Z,7.30
2022-09-02T03:10:18.817Z,7.40
2022-09-02T03:13:01.969Z,8.00
2022-09-02T03:19:45.471Z,8.40
2022-09-02T03:22:22.030Z,7.80
2022-09-02T03:31:29.898Z,7.20
2022-09-02T03:34:05.702Z,8.80
2022-09-02T03:36:49.031Z,9.00
2022-09-02T03:39:49.831Z,9.30
2022-09-02T03:42:59.916Z,7.90
2022-09-02T03:48:42.561Z,10.20
2022-09-02T03:51:43.593Z,8.50
2022-09-02T03:54:24.280Z,9.70
2022-09-02T03:57:50.524Z,8.30
2022-09-02T04:00:34.506Z,11.30
2022-09-02T04:03:59.729Z,10.50
2022-09-02T04:06:35.556Z,9.70
2022-09-02T04:09:13.725Z,12.20
2022-09-02T04:11:52.258Z,10.20
2022-09-02T04:14:34.081Z,11.30
2022-09-02T04:17:58.926Z,13.40
2022-09-02T04:21:01.103Z,11.60
2022-09-02T04:23:47.750Z,10.90
2022-09-02T04:26:48.591Z,10.10
2022-09-02T04:29:26.461Z,8.20
2022-09-02T04:32:39.851Z,9.90
2022-09-02T04:35:46.246Z,10.50
2022-09-02T04:38:43.754Z,9.10
2022-09-02T04:41:53.788Z,8.90
2022-09-02T04:44:28.921Z,14.60
2022-09-02T04:47:34.483Z,8.60
2022-09-02T04:50:13.055Z,12.50
2022-09-02T04:53:13.884Z,10.40
2022-09-02T04:56:16.946Z,10.20
2022-09-02T05:01:52.404Z,9.50
2022-09-02T05:04:53.742Z,6.70
2022-09-02T05:07:35.095Z,12.30
2022-09-02T05:10:16.173Z,6.40
2022-09-02T05:12:53.462Z,9.70
2022-09-02T05:15:27.692Z,7.30
2022-09-02T05:18:51.654Z,12.80
2022-09-02T05:21:32.168Z,10.40
2022-09-02T05:24:35.247Z,11.80
2022-09-02T05:27:36.089Z,11.90
2022-09-02T05:30:16.026Z,5.60
2022-09-02T05:32:56.448Z,9.00
2022-09-02T05:35:34.654Z,7.30
2022-09-02T05:38:18.029Z,7.80
2022-09-02T05:41:47.857Z,6.00
2022-09-02T05:44:23.531Z,10.20
2022-09-02T05:50:32.899Z,5.20
2022-09-02T05:53:33.598Z,13.30
2022-09-02T06:00:03.028Z,8.30
2022-09-02T06:03:06.367Z,10.50
2022-09-02T06:06:06.855Z,47.00
2022-09-02T06:09:18.013Z,54.90
2022-09-02T06:11:57.548Z,29.70
2022-09-02T06:15:02.121Z,10.80
2022-09-02T06:21:49.057Z,12.90
2022-09-02T06:24:24.088Z,7.60
2022-09-02T06:27:24.516Z,6.40
2022-09-02T06:36:55.845Z,7.50
2022-09-02T06:40:01.378Z,6.10
2022-09-02T06:49:29.715Z,5.40
2022-09-02T06:52:29.919Z,8.30
2022-09-02T06:55:30.005Z,5.10
2022-09-02T06:58:30.645Z,7.40
2022-09-02T07:05:18.452Z,6.80
2022-09-02T07:08:17.545Z,8.20
2022-09-02T07:10:56.177Z,5.00
2022-09-02T07:13:56.813Z,6.60
2022-09-02T07:16:41.322Z,6.10
2022-09-02T07:19:19.937Z,5.10
2022-09-02T07:22:24.317Z,4.50
2022-09-02T07:25:45.170Z,6.50
2022-09-02T07:28:20.586Z,3.50
2022-09-02T07:30:59.710Z,4.60
2022-09-02T07:34:26.931Z,3.00
2022-09-02T07:37:24.550Z,4.10
2022-09-02T07:40:03.571Z,3.80
2022-09-02T07:43:02.315Z,5.70
2022-09-02T07:45:50.799Z,4.90
2022-09-02T07:48:30.003Z,3.00
2022-09-02T07:54:15.107Z,3.30
2022-09-02T07:57:01.809Z,4.70
2022-09-02T08:00:24.082Z,3.00
2022-09-02T08:04:12.797Z,3.90
2022-09-02T08:06:48.920Z,5.30
2022-09-02T08:09:27.570Z,3.10
2022-09-02T08:12:29.994Z,4.50
2022-09-02T08:15:14.940Z,3.60
2022-09-02T08:18:20.018Z,2.50
2022-09-02T08:21:25.536Z,2.20
2022-09-02T08:24:02.082Z,6.70
2022-09-02T08:26:43.289Z,3.10
2022-09-02T08:39:54.744Z,2.40
2022-09-02T08:42:33.121Z,3.40
2022-09-02T08:45:16.429Z,2.80
2022-09-02T08:47:57.137Z,2.20
2022-09-02T08:51:02.586Z,2.50
2022-09-02T08:53:43.471Z,1.40
2022-09-02T08:56:47.310Z,4.20
2022-09-02T08:59:45.012Z,3.20
2022-09-02T09:09:35.217Z,2.80
2022-09-02T09:12:19.244Z,2.00
2022-09-02T09:15:23.487Z,1.70
2022-09-02T09:18:43.808Z,2.50
2022-09-02T09:21:19.805Z,4.60
2022-09-02T09:27:25.925Z,1.60
2022-09-02T09:30:27.317Z,3.20
2022-09-02T09:33:07.874Z,2.40
2022-09-02T09:35:57.369Z,3.20
2022-09-02T09:38:41.535Z,1.90
2022-09-02T09:41:25.369Z,1.40
2022-09-02T09:43:58.575Z,1.60
2022-09-02T09:46:36.494Z,1.80
2022-09-02T09:49:41.130Z,1.90
2022-09-02T09:52:19.952Z,2.50
2022-09-02T09:55:25.788Z,2.80
2022-09-02T10:01:24.291Z,3.30
2022-09-02T10:04:12.197Z,2.50
2022-09-02T10:14:16.516Z,2.70
2022-09-02T10:17:25.188Z,1.60
2022-09-02T10:20:08.241Z,2.60
2022-09-02T10:29:54.180Z,3.30
2022-09-02T10:33:14.720Z,5.00
2022-09-02T10:35:54.419Z,2.60
2022-09-02T10:39:15.680Z,1.90
2022-09-02T10:41:54.432Z,1.80
2022-09-02T10:47:36.012Z,1.90
2022-09-02T10:50:29.210Z,3.80
2022-09-02T10:53:31.403Z,3.00
2022-09-02T10:56:14.335Z,3.30
2022-09-02T10:59:04.507Z,2.70
2022-09-02T11:01:50.944Z,2.60
2022-09-02T11:05:18.643Z,1.40
2022-09-02T11:08:00.533Z,3.20
2022-09-02T11:10:41.080Z,1.70
2022-09-02T11:13:33.484Z,3.60
2022-09-02T11:19:24.496Z,2.50
2022-09-02T11:22:12.321Z,2.50
2022-09-02T11:25:20.684Z,1.70
2022-09-02T11:28:05.667Z,3.10
2022-09-02T11:30:47.594Z,3.90
2022-09-02T11:34:23.623Z,3.00
2022-09-02T11:37:25.542Z,3.30
2022-09-02T11:40:35.108Z,2.50
2022-09-02T11:43:45.931Z,4.30
2022-09-02T11:47:02.247Z,1.70
2022-09-02T11:50:28.129Z,3.60
2022-09-02T11:56:58.879Z,9.80
2022-09-02T12:00:13.696Z,5.80
2022-09-02T12:11:09.983Z,5.70
2022-09-02T12:14:19.998Z,1.80
2022-09-02T12:17:38.457Z,2.50
2022-09-02T12:21:23.486Z,2.20
2022-09-02T12:24:30.097Z,4.20
2022-09-02T12:27:33.806Z,1.60
2022-09-02T12:30:40.793Z,2.60
2022-09-02T12:33:45.154Z,1.30
2022-09-02T12:40:31.320Z,1.20
2022-09-02T12:43:30.090Z,2.50
2022-09-02T12:46:43.119Z,3.50
2022-09-02T12:53:58.873Z,2.60
2022-09-02T12:56:39.743Z,2.30
2022-09-02T12:59:15.728Z,1.30
2022-09-02T13:03:10.572Z,7.10
2022-09-02T13:10:16.188Z,2.30
2022-09-02T13:16:40.609Z,3.40
2022-09-02T13:19:53.935Z,3.10
2022-09-02T13:23:10.028Z,4.20
2022-09-02T13:26:50.530Z,3.30
2022-09-02T13:30:17.051Z,1.40
2022-09-02T13:33:15.832Z,1.70
2022-09-02T13:36:01.222Z,1.40
2022-09-02T13:42:00.620Z,2.00
2022-09-02T13:44:41.322Z,2.70
2022-09-02T13:47:26.265Z,2.70
2022-09-02T13:50:07.356Z,2.70
2022-09-02T13:53:45.006Z,1.40
2022-09-02T13:58:43.824Z,1.20
2022-09-02T14:01:30.357Z,3.30
2022-09-02T14:04:10.293Z,1.60
2022-09-02T14:07:15.569Z,1.20
2022-09-02T14:10:15.735Z,1.40
2022-09-02T14:12:57.201Z,1.50
2022-09-02T14:19:26.987Z,3.90
2022-09-02T14:22:26.641Z,2.60
2022-09-02T14:25:03.413Z,1.40
2022-09-02T14:27:39.381Z,1.90
2022-09-02T14:30:37.424Z,2.10
2022-09-02T14:33:38.758Z,4.30
2022-09-02T14:36:33.748Z,1.70
2022-09-02T14:39:53.915Z,2.40
2022-09-02T14:42:57.586Z,3.70
2022-09-02T14:46:00.033Z,3.70
2022-09-02T14:48:51.378Z,3.80
2022-09-02T14:51:37.977Z,2.40
2022-09-02T14:54:13.658Z,2.00
2022-09-02T14:59:59.618Z,1.60
2022-09-02T15:02:43.221Z,2.50
2022-09-02T15:05:24.741Z,3.30
2022-09-02T15:08:00.726Z,3.60
2022-09-02T15:11:04.650Z,8.20
2022-09-02T15:13:44.951Z,3.70
2022-09-02T15:16:30.178Z,3.20
2022-09-02T15:19:07.055Z,3.70
2022-09-02T15:21:46.575Z,3.40
2022-09-02T15:24:28.728Z,1.90
2022-09-02T15:27:29.742Z,2.10
2022-09-02T15:30:21.082Z,2.50
2022-09-02T15:32:54.259Z,3.20
2022-09-02T15:39:21.244Z,4.20
2022-09-02T15:41:57.469Z,2.40
2022-09-02T15:44:36.017Z,3.00
2022-09-02T15:47:56.208Z,4.50
2022-09-02T15:50:28.336Z,4.10
2022-09-02T15:53:08.519Z,2.70
2022-09-02T15:55:48.069Z,3.50
2022-09-02T15:58:24.504Z,1.90
2022-09-02T16:00:59.583Z,1.80
2022-09-02T16:03:36.777Z,3.10
2022-09-02T16:06:37.596Z,2.10
2022-09-02T16:09:12.502Z,2.80
2022-09-02T16:11:47.047Z,2.50
2022-09-02T16:14:23.315Z,3.50
2022-09-02T16:16:57.398Z,2.30
2022-09-02T16:19:30.988Z,2.70
2022-09-02T16:22:04.390Z,2.20
2022-09-02T16:24:39.224Z,2.80
2022-09-02T16:27:12.075Z,4.70
2022-09-02T16:29:45.531Z,2.40
2022-09-02T16:32:27.683Z,4.20
2022-09-02T16:35:00.819Z,2.50
2022-09-02T16:37:33.047Z,5.00
2022-09-02T16:40:06.845Z,3.80
2022-09-02T16:42:42.981Z,2.50
2022-09-02T16:45:16.017Z,3.10
2022-09-02T16:47:49.677Z,2.80
2022-09-02T16:50:25.050Z,3.10
2022-09-02T16:52:57.612Z,2.60
2022-09-02T16:55:31.790Z,3.40
2022-09-02T16:58:12.482Z,3.40
2022-09-02T17:00:45.415Z,3.80
2022-09-02T17:03:17.439Z,8.50
2022-09-02T17:05:50.435Z,3.30
2022-09-02T17:08:23.185Z,4.90
2022-09-02T17:11:09.447Z,5.00
2022-09-02T17:13:42.228Z,6.80
2022-09-02T17:16:16.253Z,6.10
2022-09-02T17:18:49.848Z,5.40
2022-09-02T17:21:26.975Z,4.40
2022-09-02T17:23:59.656Z,4.20
2022-09-02T17:26:35.238Z,4.10
2022-09-02T17:29:31.630Z,4.80
2022-09-02T17:32:06.196Z,4.70
2022-09-02T17:34:38.372Z,4.50
2022-09-02T17:37:12.105Z,6.00
2022-09-02T17:39:44.250Z,8.20
2022-09-02T17:42:21.663Z,8.20
2022-09-02T17:44:56.587Z,7.30
2022-09-02T17:47:31.887Z,9.20
2022-09-02T17:50:05.617Z,8.50
2022-09-02T17:52:38.588Z,9.70
2022-09-02T17:55:13.825Z,10.20
2022-09-02T17:57:56.669Z,9.00
2022-09-02T18:00:32.887Z,12.50
2022-09-02T18:03:36.073Z,9.30
2022-09-02T18:06:17.617Z,8.50
2022-09-02T18:08:56.315Z,7.10
2022-09-02T18:11:30.210Z,7.20
2022-09-02T18:14:13.059Z,4.90
2022-09-02T18:16:53.013Z,5.10
2022-09-02T18:19:38.630Z,6.30
2022-09-02T18:22:22.641Z,6.50
2022-09-02T18:25:08.505Z,5.60
2022-09-02T18:27:52.886Z,5.70
2022-09-02T18:30:29.487Z,9.20
2022-09-02T18:33:31.633Z,8.00
2022-09-02T18:36:16.446Z,8.80
2022-09-02T18:38:55.545Z,9.10
2022-09-02T18:41:42.994Z,7.70
2022-09-02T18:44:23.376Z,7.60
2022-09-02T18:47:03.285Z,9.30
2022-09-02T18:49:38.149Z,7.20
2022-09-02T18:52:13.792Z,5.30
2022-09-02T18:54:55.285Z,8.00
2022-09-02T18:57:34.215Z,5.30
2022-09-02T19:00:10.421Z,4.10
2022-09-02T19:02:49.913Z,6.00
2022-09-02T19:05:27.973Z,6.00
2022-09-02T19:08:25.095Z,5.50
2022-09-02T19:11:05.494Z,4.30
2022-09-02T19:13:47.234Z,5.30
2022-09-02T19:16:24.249Z,4.10
2022-09-02T19:19:05.396Z,8.20
2022-09-02T19:21:49.379Z,6.50
2022-09-02T19:24:36.985Z,7.10
2022-09-02T19:27:43.292Z,6.10
2022-09-02T19:33:46.871Z,6.10
2022-09-02T19:40:30.397Z,3.70
2022-09-02T19:43:35.967Z,5.00
2022-09-02T19:46:45.452Z,3.90
2022-09-02T19:49:27.655Z,4.50
2022-09-02T19:52:05.985Z,4.40
2022-09-02T19:54:49.727Z,4.20
2022-09-02T20:00:36.475Z,3.90
2022-09-02T20:03:18.340Z,3.60
2022-09-02T20:08:58.463Z,4.00
2022-09-02T20:11:37.059Z,4.20
2022-09-02T20:14:20.001Z,3.10
2022-09-02T20:17:14.977Z,3.40
2022-09-02T20:19:48.997Z,5.40
2022-09-02T20:23:32.365Z,4.10
2022-09-02T20:26:50.223Z,4.60
2022-09-02T20:30:29.672Z,4.70
2022-09-02T20:36:46.456Z,5.30
2022-09-02T20:39:55.138Z,5.30
2022-09-02T20:42:56.250Z,3.30
2022-09-02T20:52:47.859Z,4.20
2022-09-02T20:55:53.887Z,4.10
2022-09-02T20:58:54.740Z,4.40
2022-09-02T21:01:53.944Z,3.00
2022-09-02T21:05:02.845Z,4.30
2022-09-02T21:08:10.662Z,3.70
2022-09-02T21:11:42.299Z,3.40
2022-09-02T21:14:28.083Z,3.20
2022-09-02T21:17:16.122Z,3.10
2022-09-02T21:20:02.125Z,2.90
2022-09-02T21:22:48.135Z,3.00
2022-09-02T21:25:35.621Z,3.40
2022-09-02T21:29:06.547Z,13.00
2022-09-02T21:32:11.850Z,5.50
2022-09-02T21:35:16.762Z,3.90
2022-09-02T21:38:16.618Z,5.00
2022-09-02T21:41:41.161Z,8.60
2022-09-02T21:44:53.186Z,3.50
2022-09-02T21:47:33.037Z,3.20
2022-09-02T21:54:00.220Z,5.50
2022-09-02T21:56:55.829Z,4.20
2022-09-02T21:59:50.794Z,5.10
2022-09-02T22:02:42.655Z,2.50
2022-09-02T22:05:29.783Z,3.50
2022-09-02T22:08:14.403Z,2.60
2022-09-02T22:11:06.451Z,2.50
2022-09-02T22:14:16.339Z,8.00
2022-09-02T22:17:25.625Z,5.20
2022-09-02T22:20:30.499Z,4.40
2022-09-02T22:23:58.986Z,2.40
2022-09-02T22:26:49.799Z,3.10
2022-09-02T22:29:38.321Z,3.80
2022-09-02T22:32:46.569Z,4.40
2022-09-02T22:38:53.223Z,3.50
2022-09-02T22:41:46.727Z,3.90
2022-09-02T22:51:12.520Z,2.60
2022-09-02T23:00:57.498Z,3.70
2022-09-02T23:04:05.888Z,4.20
2022-09-02T23:06:39.435Z,3.50
2022-09-02T23:09:39.254Z,2.80
2022-09-02T23:13:00.995Z,2.80
2022-09-02T23:26:05.292Z,3.50
2022-09-02T23:36:27.744Z,3.90
2022-09-02T23:39:19.485Z,3.90
2022-09-02T23:42:03.913Z,3.40
2022-09-02T23:44:46.032Z,4.20
2022-09-02T23:47:51.995Z,2.00
2022-09-02T23:51:00.517Z,4.60
